sensor_id;sensor_type;location;lat;lon;timestamp;temperature;humidity
63371;DHT22;72300;48.336;14.472;2023-08-20T04:16:09;17.90;79.20
63371;DHT22;72300;48.336;14.472;2023-08-20T04:19:32;18.00;80.20
63371;DHT22;72300;48.336;14.472;2023-08-20T04:22:55;18.30;79.70
63371;DHT22;72300;48.336;14.472;2023-08-20T04:26:18;18.60;79.10
63371;DHT22;72300;48.336;14.472;2023-08-20T04:29:41;19.10;78.40
63371;DHT22;72300;48.336;14.472;2023-08-20T04:33:06;19.40;77.40
63371;DHT22;72300;48.336;14.472;2023-08-20T04:36:28;19.70;76.60
63371;DHT22;72300;48.336;14.472;2023-08-20T04:39:51;20.00;75.60
63371;DHT22;72300;48.336;14.472;2023-08-20T04:43:13;20.20;74.70
63371;DHT22;72300;48.336;14.472;2023-08-20T04:46:36;20.40;74.00
63371;DHT22;72300;48.336;14.472;2023-08-20T04:50:00;20.50;73.30
63371;DHT22;72300;48.336;14.472;2023-08-20T05:03:50;20.70;72.70
63371;DHT22;72300;48.336;14.472;2023-08-20T05:07:13;21.00;71.20
63371;DHT22;72300;48.336;14.472;2023-08-20T05:10:36;21.10;71.00
63371;DHT22;72300;48.336;14.472;2023-08-20T05:13:59;21.10;70.90
63371;DHT22;72300;48.336;14.472;2023-08-20T05:17:22;21.30;71.00
63371;DHT22;72300;48.336;14.472;2023-08-20T05:20:46;21.30;70.70
63371;DHT22;72300;48.336;14.472;2023-08-20T05:24:09;21.40;70.50
63371;DHT22;72300;48.336;14.472;2023-08-20T05:27:31;21.50;70.20
63371;DHT22;72300;48.336;14.472;2023-08-20T05:30:54;21.50;70.20
63371;DHT22;72300;48.336;14.472;2023-08-20T05:34:18;21.50;70.40
63371;DHT22;72300;48.336;14.472;2023-08-20T05:37:42;21.60;70.50
63371;DHT22;72300;48.336;14.472;2023-08-20T05:41:04;21.70;71.10
63371;DHT22;72300;48.336;14.472;2023-08-20T05:44:27;21.80;70.70
63371;DHT22;72300;48.336;14.472;2023-08-20T05:47:50;21.80;70.70
63371;DHT22;72300;48.336;14.472;2023-08-20T05:51:12;21.90;70.80
63371;DHT22;72300;48.336;14.472;2023-08-20T05:54:36;22.00;70.60
63371;DHT22;72300;48.336;14.472;2023-08-20T05:58:02;22.10;70.50
63371;DHT22;72300;48.336;14.472;2023-08-20T06:01:28;22.20;70.50
63371;DHT22;72300;48.336;14.472;2023-08-20T06:04:52;22.20;70.40
63371;DHT22;72300;48.336;14.472;2023-08-20T06:08:14;22.30;70.20
63371;DHT22;72300;48.336;14.472;2023-08-20T06:11:38;22.40;70.00
63371;DHT22;72300;48.336;14.472;2023-08-20T06:15:04;22.50;69.90
63371;DHT22;72300;48.336;14.472;2023-08-20T06:18:28;22.60;70.00
63371;DHT22;72300;48.336;14.472;2023-08-20T06:25:38;22.70;70.10
63371;DHT22;72300;48.336;14.472;2023-08-20T06:29:00;22.90;69.70
63371;DHT22;72300;48.336;14.472;2023-08-20T06:32:21;23.00;69.90
63371;DHT22;72300;48.336;14.472;2023-08-20T06:35:42;23.10;70.30
63371;DHT22;72300;48.336;14.472;2023-08-20T06:39:04;23.20;70.50
63371;DHT22;72300;48.336;14.472;2023-08-20T06:44:10;23.50;70.10
63371;DHT22;72300;48.336;14.472;2023-08-20T06:47:31;23.60;70.50
63371;DHT22;72300;48.336;14.472;2023-08-20T06:50:52;23.70;70.40
63371;DHT22;72300;48.336;14.472;2023-08-20T06:54:15;23.90;70.20
63371;DHT22;72300;48.336;14.472;2023-08-20T06:57:36;24.00;70.10
63371;DHT22;72300;48.336;14.472;2023-08-20T07:00:59;24.20;69.80
63371;DHT22;72300;48.336;14.472;2023-08-20T07:04:20;24.40;69.60
63371;DHT22;72300;48.336;14.472;2023-08-20T07:07:41;24.40;69.00
63371;DHT22;72300;48.336;14.472;2023-08-20T07:11:02;24.60;69.20
63371;DHT22;72300;48.336;14.472;2023-08-20T07:14:23;24.70;68.70
63371;DHT22;72300;48.336;14.472;2023-08-20T07:17:46;24.80;68.60
63371;DHT22;72300;48.336;14.472;2023-08-20T07:21:07;24.90;68.50
63371;DHT22;72300;48.336;14.472;2023-08-20T07:24:28;25.00;68.50
63371;DHT22;72300;48.336;14.472;2023-08-20T07:27:49;25.10;68.30
63371;DHT22;72300;48.336;14.472;2023-08-20T07:31:11;25.20;68.20
63371;DHT22;72300;48.336;14.472;2023-08-20T07:34:34;25.30;68.10
63371;DHT22;72300;48.336;14.472;2023-08-20T07:37:55;25.40;68.00
63371;DHT22;72300;48.336;14.472;2023-08-20T07:41:18;25.50;67.90
63371;DHT22;72300;48.336;14.472;2023-08-20T07:44:39;25.60;67.70
63371;DHT22;72300;48.336;14.472;2023-08-20T07:48:00;25.60;67.40
63371;DHT22;72300;48.336;14.472;2023-08-20T07:51:25;25.70;67.40
63371;DHT22;72300;48.336;14.472;2023-08-20T07:54:47;25.80;67.30
63371;DHT22;72300;48.336;14.472;2023-08-20T07:58:08;25.90;67.10
63371;DHT22;72300;48.336;14.472;2023-08-20T08:04:04;26.00;67.10
63371;DHT22;72300;48.336;14.472;2023-08-20T08:07:26;26.00;67.00
63371;DHT22;72300;48.336;14.472;2023-08-20T08:10:48;26.10;66.90
63371;DHT22;72300;48.336;14.472;2023-08-20T08:14:09;26.10;66.80
63371;DHT22;72300;48.336;14.472;2023-08-20T08:17:31;26.20;66.80
63371;DHT22;72300;48.336;14.472;2023-08-20T08:20:53;26.20;66.70
63371;DHT22;72300;48.336;14.472;2023-08-20T08:24:15;26.30;66.50
63371;DHT22;72300;48.336;14.472;2023-08-20T08:27:49;26.30;66.00
63371;DHT22;72300;48.336;14.472;2023-08-20T08:31:12;26.40;66.40
63371;DHT22;72300;48.336;14.472;2023-08-20T08:34:33;26.50;66.20
63371;DHT22;72300;48.336;14.472;2023-08-20T08:37:54;26.50;66.20
63371;DHT22;72300;48.336;14.472;2023-08-20T08:41:21;26.60;66.80
63371;DHT22;72300;48.336;14.472;2023-08-20T08:44:45;26.60;66.10
63371;DHT22;72300;48.336;14.472;2023-08-20T08:48:07;26.60;66.50
63371;DHT22;72300;48.336;14.472;2023-08-20T08:51:28;26.70;66.50
63371;DHT22;72300;48.336;14.472;2023-08-20T08:54:51;26.80;65.80
63371;DHT22;72300;48.336;14.472;2023-08-20T08:58:12;26.80;65.70
63371;DHT22;72300;48.336;14.472;2023-08-20T09:01:38;26.80;65.70
63371;DHT22;72300;48.336;14.472;2023-08-20T09:04:59;26.90;65.80
63371;DHT22;72300;48.336;14.472;2023-08-20T09:08:20;26.90;65.70
63371;DHT22;72300;48.336;14.472;2023-08-20T09:11:42;27.00;65.80
63371;DHT22;72300;48.336;14.472;2023-08-20T09:15:04;27.00;65.70
63371;DHT22;72300;48.336;14.472;2023-08-20T09:18:33;27.00;65.60
63371;DHT22;72300;48.336;14.472;2023-08-20T09:21:55;27.10;65.60
63371;DHT22;72300;48.336;14.472;2023-08-20T09:25:17;27.10;65.60
63371;DHT22;72300;48.336;14.472;2023-08-20T09:28:42;27.20;65.60
63371;DHT22;72300;48.336;14.472;2023-08-20T09:32:05;27.20;65.60
63371;DHT22;72300;48.336;14.472;2023-08-20T09:35:28;27.20;65.50
63371;DHT22;72300;48.336;14.472;2023-08-20T09:38:51;27.30;65.30
63371;DHT22;72300;48.336;14.472;2023-08-20T09:42:13;27.30;65.20
63371;DHT22;72300;48.336;14.472;2023-08-20T09:45:34;27.30;65.10
63371;DHT22;72300;48.336;14.472;2023-08-20T09:48:57;27.30;65.00
63371;DHT22;72300;48.336;14.472;2023-08-20T09:52:26;27.40;65.00
63371;DHT22;72300;48.336;14.472;2023-08-20T09:55:51;27.40;65.00
63371;DHT22;72300;48.336;14.472;2023-08-20T09:59:13;27.40;64.90
63371;DHT22;72300;48.336;14.472;2023-08-20T10:02:35;27.40;65.40
63371;DHT22;72300;48.336;14.472;2023-08-20T10:05:57;27.50;64.80
63371;DHT22;72300;48.336;14.472;2023-08-20T10:09:21;27.50;64.80
63371;DHT22;72300;48.336;14.472;2023-08-20T10:12:43;27.50;64.70
63371;DHT22;72300;48.336;14.472;2023-08-20T10:16:04;27.50;64.60
63371;DHT22;72300;48.336;14.472;2023-08-20T10:19:27;27.50;64.50
63371;DHT22;72300;48.336;14.472;2023-08-20T10:22:50;27.60;64.70
63371;DHT22;72300;48.336;14.472;2023-08-20T10:26:14;27.60;64.60
63371;DHT22;72300;48.336;14.472;2023-08-20T10:29:36;27.60;64.60
63371;DHT22;72300;48.336;14.472;2023-08-20T10:32:58;27.60;64.60
63371;DHT22;72300;48.336;14.472;2023-08-20T10:36:20;27.60;64.60
63371;DHT22;72300;48.336;14.472;2023-08-20T10:39:42;27.60;64.60
63371;DHT22;72300;48.336;14.472;2023-08-20T10:43:04;27.70;64.70
63371;DHT22;72300;48.336;14.472;2023-08-20T10:46:27;27.70;64.50
63371;DHT22;72300;48.336;14.472;2023-08-20T10:49:51;27.70;64.50
63371;DHT22;72300;48.336;14.472;2023-08-20T10:53:13;27.70;64.50
63371;DHT22;72300;48.336;14.472;2023-08-20T10:56:41;27.70;64.50
63371;DHT22;72300;48.336;14.472;2023-08-20T11:00:06;27.80;64.60
63371;DHT22;72300;48.336;14.472;2023-08-20T11:03:28;27.80;65.10
63371;DHT22;72300;48.336;14.472;2023-08-20T11:06:52;27.80;64.40
63371;DHT22;72300;48.336;14.472;2023-08-20T11:10:14;27.80;64.40
63371;DHT22;72300;48.336;14.472;2023-08-20T11:13:36;27.80;64.40
63371;DHT22;72300;48.336;14.472;2023-08-20T11:16:59;27.80;64.40
63371;DHT22;72300;48.336;14.472;2023-08-20T11:20:20;27.80;64.40
63371;DHT22;72300;48.336;14.472;2023-08-20T11:23:41;27.80;64.40
63371;DHT22;72300;48.336;14.472;2023-08-20T11:27:02;27.80;64.30
63371;DHT22;72300;48.336;14.472;2023-08-20T11:30:29;27.90;64.30
63371;DHT22;72300;48.336;14.472;2023-08-20T11:33:52;27.90;64.30
63371;DHT22;72300;48.336;14.472;2023-08-20T11:39:51;27.90;64.00
63371;DHT22;72300;48.336;14.472;2023-08-20T11:43:13;27.90;64.20
63371;DHT22;72300;48.336;14.472;2023-08-20T11:46:42;27.90;64.10
63371;DHT22;72300;48.336;14.472;2023-08-20T11:50:05;27.90;64.10
63371;DHT22;72300;48.336;14.472;2023-08-20T11:53:29;28.00;64.20
63371;DHT22;72300;48.336;14.472;2023-08-20T11:57:02;28.00;64.30
63371;DHT22;72300;48.336;14.472;2023-08-20T12:00:31;28.00;64.30
63371;DHT22;72300;48.336;14.472;2023-08-20T12:04:00;28.00;64.20
63371;DHT22;72300;48.336;14.472;2023-08-20T12:07:25;28.00;64.20
63371;DHT22;72300;48.336;14.472;2023-08-20T12:10:47;28.00;64.20
63371;DHT22;72300;48.336;14.472;2023-08-20T12:14:10;28.00;64.20
63371;DHT22;72300;48.336;14.472;2023-08-20T12:17:31;28.00;64.10
63371;DHT22;72300;48.336;14.472;2023-08-20T12:20:52;28.10;64.10
63371;DHT22;72300;48.336;14.472;2023-08-20T12:24:15;28.10;64.00
63371;DHT22;72300;48.336;14.472;2023-08-20T12:27:37;28.10;63.90
63371;DHT22;72300;48.336;14.472;2023-08-20T12:30:59;28.10;63.90
63371;DHT22;72300;48.336;14.472;2023-08-20T12:34:21;28.20;64.00
63371;DHT22;72300;48.336;14.472;2023-08-20T12:37:42;28.10;63.90
63371;DHT22;72300;48.336;14.472;2023-08-20T12:41:04;28.10;63.90
63371;DHT22;72300;48.336;14.472;2023-08-20T12:44:25;28.10;63.80
63371;DHT22;72300;48.336;14.472;2023-08-20T12:47:48;28.10;63.80
63371;DHT22;72300;48.336;14.472;2023-08-20T12:51:09;28.20;63.80
63371;DHT22;72300;48.336;14.472;2023-08-20T12:54:30;28.20;63.80
63371;DHT22;72300;48.336;14.472;2023-08-20T12:57:53;28.20;64.00
63371;DHT22;72300;48.336;14.472;2023-08-20T13:01:14;28.20;63.90
63371;DHT22;72300;48.336;14.472;2023-08-20T13:04:38;28.20;64.00
63371;DHT22;72300;48.336;14.472;2023-08-20T13:08:00;28.20;63.90
63371;DHT22;72300;48.336;14.472;2023-08-20T13:11:29;28.30;63.90
63371;DHT22;72300;48.336;14.472;2023-08-20T13:15:04;28.30;63.90
63371;DHT22;72300;48.336;14.472;2023-08-20T13:18:28;28.30;63.90
63371;DHT22;72300;48.336;14.472;2023-08-20T13:21:52;28.40;63.90
63371;DHT22;72300;48.336;14.472;2023-08-20T13:25:50;28.50;63.50
63371;DHT22;72300;48.336;14.472;2023-08-20T13:29:11;28.50;63.80
63371;DHT22;72300;48.336;14.472;2023-08-20T13:32:33;28.60;63.80
63371;DHT22;72300;48.336;14.472;2023-08-20T13:35:54;28.70;63.80
63371;DHT22;72300;48.336;14.472;2023-08-20T13:39:15;28.70;63.70
63371;DHT22;72300;48.336;14.472;2023-08-20T13:42:37;28.80;63.80
63371;DHT22;72300;48.336;14.472;2023-08-20T13:45:59;28.90;63.80
63371;DHT22;72300;48.336;14.472;2023-08-20T13:49:20;28.90;63.90
63371;DHT22;72300;48.336;14.472;2023-08-20T13:52:42;29.10;64.00
63371;DHT22;72300;48.336;14.472;2023-08-20T13:56:04;29.20;63.80
63371;DHT22;72300;48.336;14.472;2023-08-20T13:59:26;29.20;63.60
63371;DHT22;72300;48.336;14.472;2023-08-20T14:02:47;29.40;63.50
63371;DHT22;72300;48.336;14.472;2023-08-20T14:06:09;29.50;63.30
63371;DHT22;72300;48.336;14.472;2023-08-20T14:09:30;29.50;63.20
63371;DHT22;72300;48.336;14.472;2023-08-20T14:12:56;29.70;63.10
63371;DHT22;72300;48.336;14.472;2023-08-20T14:16:43;29.70;63.00
63371;DHT22;72300;48.336;14.472;2023-08-20T14:20:13;29.80;62.90
63371;DHT22;72300;48.336;14.472;2023-08-20T14:23:35;29.90;62.60
63371;DHT22;72300;48.336;14.472;2023-08-20T14:26:57;30.00;62.40
63371;DHT22;72300;48.336;14.472;2023-08-20T14:30:18;30.00;62.20
63371;DHT22;72300;48.336;14.472;2023-08-20T14:33:41;30.10;62.00
63371;DHT22;72300;48.336;14.472;2023-08-20T14:37:03;30.10;62.00
63371;DHT22;72300;48.336;14.472;2023-08-20T14:40:24;30.10;61.80
63371;DHT22;72300;48.336;14.472;2023-08-20T14:43:45;30.20;61.60
63371;DHT22;72300;48.336;14.472;2023-08-20T14:47:07;30.20;61.60
63371;DHT22;72300;48.336;14.472;2023-08-20T14:50:30;30.20;61.50
63371;DHT22;72300;48.336;14.472;2023-08-20T14:53:51;30.20;61.50
63371;DHT22;72300;48.336;14.472;2023-08-20T14:57:13;30.10;61.40
63371;DHT22;72300;48.336;14.472;2023-08-20T15:00:34;30.10;61.40
63371;DHT22;72300;48.336;14.472;2023-08-20T15:03:55;30.10;61.40
63371;DHT22;72300;48.336;14.472;2023-08-20T15:07:18;30.20;61.50
63371;DHT22;72300;48.336;14.472;2023-08-20T15:10:39;30.20;61.40
63371;DHT22;72300;48.336;14.472;2023-08-20T15:14:00;30.20;61.20
63371;DHT22;72300;48.336;14.472;2023-08-20T15:17:21;30.20;61.10
63371;DHT22;72300;48.336;14.472;2023-08-20T15:20:43;30.20;60.90
63371;DHT22;72300;48.336;14.472;2023-08-20T15:24:05;30.30;60.90
63371;DHT22;72300;48.336;14.472;2023-08-20T15:27:26;30.20;60.80
63371;DHT22;72300;48.336;14.472;2023-08-20T15:30:48;30.10;60.60
63371;DHT22;72300;48.336;14.472;2023-08-20T15:34:09;30.10;60.50
63371;DHT22;72300;48.336;14.472;2023-08-20T15:37:30;30.00;60.50
63371;DHT22;72300;48.336;14.472;2023-08-20T15:40:53;29.90;60.50
63371;DHT22;72300;48.336;14.472;2023-08-20T15:44:14;29.80;60.60
63371;DHT22;72300;48.336;14.472;2023-08-20T15:47:36;29.70;60.60
63371;DHT22;72300;48.336;14.472;2023-08-20T15:50:59;29.70;60.70
63371;DHT22;72300;48.336;14.472;2023-08-20T15:54:20;29.60;60.70
63371;DHT22;72300;48.336;14.472;2023-08-20T15:57:43;29.50;60.80
63371;DHT22;72300;48.336;14.472;2023-08-20T16:01:04;29.40;60.90
63371;DHT22;72300;48.336;14.472;2023-08-20T16:04:25;29.40;60.90
63371;DHT22;72300;48.336;14.472;2023-08-20T16:07:46;29.20;60.90
63371;DHT22;72300;48.336;14.472;2023-08-20T16:11:08;29.30;61.10
63371;DHT22;72300;48.336;14.472;2023-08-20T16:14:30;29.20;61.10
63371;DHT22;72300;48.336;14.472;2023-08-20T16:17:51;29.10;61.20
63371;DHT22;72300;48.336;14.472;2023-08-20T16:21:12;29.10;61.30
63371;DHT22;72300;48.336;14.472;2023-08-20T16:24:33;29.00;61.20
63371;DHT22;72300;48.336;14.472;2023-08-20T16:27:55;29.00;61.30
63371;DHT22;72300;48.336;14.472;2023-08-20T16:31:18;28.90;61.40
63371;DHT22;72300;48.336;14.472;2023-08-20T16:34:39;28.90;61.40
63371;DHT22;72300;48.336;14.472;2023-08-20T16:38:00;28.80;61.40
63371;DHT22;72300;48.336;14.472;2023-08-20T16:41:21;28.80;61.40
63371;DHT22;72300;48.336;14.472;2023-08-20T16:44:42;28.80;61.50
63371;DHT22;72300;48.336;14.472;2023-08-20T16:48:05;28.80;61.60
63371;DHT22;72300;48.336;14.472;2023-08-20T16:51:27;28.80;61.70
63371;DHT22;72300;48.336;14.472;2023-08-20T16:54:48;28.70;61.60
63371;DHT22;72300;48.336;14.472;2023-08-20T16:58:10;28.70;61.60
63371;DHT22;72300;48.336;14.472;2023-08-20T17:01:33;28.70;61.70
63371;DHT22;72300;48.336;14.472;2023-08-20T17:04:56;28.70;61.70
63371;DHT22;72300;48.336;14.472;2023-08-20T17:08:18;28.60;61.70
63371;DHT22;72300;48.336;14.472;2023-08-20T17:11:39;28.60;61.70
63371;DHT22;72300;48.336;14.472;2023-08-20T17:15:00;28.60;61.70
63371;DHT22;72300;48.336;14.472;2023-08-20T17:18:23;28.60;61.80
63371;DHT22;72300;48.336;14.472;2023-08-20T17:21:46;28.60;61.70
63371;DHT22;72300;48.336;14.472;2023-08-20T17:25:08;28.60;61.70
63371;DHT22;72300;48.336;14.472;2023-08-20T17:28:29;28.50;61.70
63371;DHT22;72300;48.336;14.472;2023-08-20T17:31:50;28.50;61.70
63371;DHT22;72300;48.336;14.472;2023-08-20T17:35:13;28.50;61.70
63371;DHT22;72300;48.336;14.472;2023-08-20T17:38:35;28.50;61.70
63371;DHT22;72300;48.336;14.472;2023-08-20T17:41:56;28.50;61.80
63371;DHT22;72300;48.336;14.472;2023-08-20T17:45:17;28.50;61.80
63371;DHT22;72300;48.336;14.472;2023-08-20T17:48:40;28.40;61.80
63371;DHT22;72300;48.336;14.472;2023-08-20T17:52:01;28.40;61.80
63371;DHT22;72300;48.336;14.472;2023-08-20T17:55:23;28.40;61.80
63371;DHT22;72300;48.336;14.472;2023-08-20T17:58:44;28.40;61.80
63371;DHT22;72300;48.336;14.472;2023-08-20T18:02:06;28.30;61.80
63371;DHT22;72300;48.336;14.472;2023-08-20T18:05:44;28.40;61.40
63371;DHT22;72300;48.336;14.472;2023-08-20T18:09:05;28.30;61.90
63371;DHT22;72300;48.336;14.472;2023-08-20T18:12:27;28.30;61.90
63371;DHT22;72300;48.336;14.472;2023-08-20T18:15:48;28.30;61.90
63371;DHT22;72300;48.336;14.472;2023-08-20T18:19:10;28.30;61.90
63371;DHT22;72300;48.336;14.472;2023-08-20T18:22:33;28.30;61.90
63371;DHT22;72300;48.336;14.472;2023-08-20T18:25:56;28.30;61.90
63371;DHT22;72300;48.336;14.472;2023-08-20T18:29:20;28.20;62.00
63371;DHT22;72300;48.336;14.472;2023-08-20T18:32:41;28.20;62.10
63371;DHT22;72300;48.336;14.472;2023-08-20T18:36:02;28.20;62.10
63371;DHT22;72300;48.336;14.472;2023-08-20T18:39:25;28.20;62.10
63371;DHT22;72300;48.336;14.472;2023-08-20T18:42:47;28.20;62.20
63371;DHT22;72300;48.336;14.472;2023-08-20T18:46:08;28.20;62.20
63371;DHT22;72300;48.336;14.472;2023-08-20T18:49:29;28.20;62.20
63371;DHT22;72300;48.336;14.472;2023-08-20T18:52:51;28.20;62.80
63371;DHT22;72300;48.336;14.472;2023-08-20T18:58:35;28.20;61.50
63371;DHT22;72300;48.336;14.472;2023-08-20T19:01:56;28.20;62.00
63371;DHT22;72300;48.336;14.472;2023-08-20T19:05:17;28.20;62.00
63371;DHT22;72300;48.336;14.472;2023-08-20T19:08:38;28.20;62.00
63371;DHT22;72300;48.336;14.472;2023-08-20T19:12:00;28.10;61.90
63371;DHT22;72300;48.336;14.472;2023-08-20T19:15:22;28.10;61.80
63371;DHT22;72300;48.336;14.472;2023-08-20T19:18:43;28.10;61.80
63371;DHT22;72300;48.336;14.472;2023-08-20T19:22:04;28.10;61.80
63371;DHT22;72300;48.336;14.472;2023-08-20T19:25:26;28.10;61.80
63371;DHT22;72300;48.336;14.472;2023-08-20T19:28:51;28.10;61.70
63371;DHT22;72300;48.336;14.472;2023-08-20T19:32:15;28.10;61.80
63371;DHT22;72300;48.336;14.472;2023-08-20T19:35:36;28.10;61.90
63371;DHT22;72300;48.336;14.472;2023-08-20T19:38:57;28.10;62.50
63371;DHT22;72300;48.336;14.472;2023-08-20T19:42:18;28.00;61.80
63371;DHT22;72300;48.336;14.472;2023-08-20T19:45:40;28.00;61.80
63371;DHT22;72300;48.336;14.472;2023-08-20T19:49:02;28.00;61.80
63371;DHT22;72300;48.336;14.472;2023-08-20T19:52:23;28.00;61.70
63371;DHT22;72300;48.336;14.472;2023-08-20T19:55:44;28.00;61.70
63371;DHT22;72300;48.336;14.472;2023-08-20T19:59:06;28.00;61.70
63371;DHT22;72300;48.336;14.472;2023-08-20T20:02:27;28.00;61.60
63371;DHT22;72300;48.336;14.472;2023-08-20T20:05:49;28.00;61.60
63371;DHT22;72300;48.336;14.472;2023-08-20T20:09:11;28.00;61.60
63371;DHT22;72300;48.336;14.472;2023-08-20T20:12:32;28.00;61.60
63371;DHT22;72300;48.336;14.472;2023-08-20T20:15:54;28.00;61.60
63371;DHT22;72300;48.336;14.472;2023-08-20T20:19:15;28.00;61.60
63371;DHT22;72300;48.336;14.472;2023-08-20T20:22:39;28.00;61.50
63371;DHT22;72300;48.336;14.472;2023-08-20T20:26:03;27.90;61.50
63371;DHT22;72300;48.336;14.472;2023-08-20T20:29:24;28.00;61.50
63371;DHT22;72300;48.336;14.472;2023-08-20T20:32:45;27.90;61.50
63371;DHT22;72300;48.336;14.472;2023-08-20T20:36:07;27.90;61.70
63371;DHT22;72300;48.336;14.472;2023-08-20T20:39:29;27.90;61.70
63371;DHT22;72300;48.336;14.472;2023-08-20T20:42:50;27.90;61.80
63371;DHT22;72300;48.336;14.472;2023-08-20T20:46:11;27.90;61.90
63371;DHT22;72300;48.336;14.472;2023-08-20T20:49:33;27.90;61.80
63371;DHT22;72300;48.336;14.472;2023-08-20T20:52:54;27.90;61.80
63371;DHT22;72300;48.336;14.472;2023-08-20T20:56:16;27.90;62.20
63371;DHT22;72300;48.336;14.472;2023-08-20T20:59:37;27.90;61.60
63371;DHT22;72300;48.336;14.472;2023-08-20T21:02:59;27.90;61.70
63371;DHT22;72300;48.336;14.472;2023-08-20T21:06:20;27.90;61.70
63371;DHT22;72300;48.336;14.472;2023-08-20T21:09:41;27.90;61.70
63371;DHT22;72300;48.336;14.472;2023-08-20T21:13:04;27.90;61.60
63371;DHT22;72300;48.336;14.472;2023-08-20T21:16:25;27.90;61.60
63371;DHT22;72300;48.336;14.472;2023-08-20T21:19:46;27.90;61.50
63371;DHT22;72300;48.336;14.472;2023-08-20T21:23:07;27.90;61.40
63371;DHT22;72300;48.336;14.472;2023-08-20T21:26:28;27.90;61.40
63371;DHT22;72300;48.336;14.472;2023-08-20T21:29:51;27.80;61.30
63371;DHT22;72300;48.336;14.472;2023-08-20T21:33:12;27.80;61.30
63371;DHT22;72300;48.336;14.472;2023-08-20T21:36:33;27.80;61.20
63371;DHT22;72300;48.336;14.472;2023-08-20T21:39:54;27.80;61.10
63371;DHT22;72300;48.336;14.472;2023-08-20T21:43:15;27.80;61.10
63371;DHT22;72300;48.336;14.472;2023-08-20T21:46:38;27.80;61.10
63371;DHT22;72300;48.336;14.472;2023-08-20T21:49:59;27.80;61.00
63371;DHT22;72300;48.336;14.472;2023-08-20T21:53:20;27.70;60.90
63371;DHT22;72300;48.336;14.472;2023-08-20T21:56:41;27.80;61.00
63371;DHT22;72300;48.336;14.472;2023-08-20T22:00:03;27.80;61.00
63371;DHT22;72300;48.336;14.472;2023-08-20T22:03:26;27.80;61.00
63371;DHT22;72300;48.336;14.472;2023-08-20T22:06:49;27.70;60.90
63371;DHT22;72300;48.336;14.472;2023-08-20T22:10:10;27.70;60.90
63371;DHT22;72300;48.336;14.472;2023-08-20T22:13:32;27.70;60.80
63371;DHT22;72300;48.336;14.472;2023-08-20T22:19:45;27.70;60.50
63371;DHT22;72300;48.336;14.472;2023-08-20T22:23:06;27.70;60.80
63371;DHT22;72300;48.336;14.472;2023-08-20T22:26:28;27.60;60.70
63371;DHT22;72300;48.336;14.472;2023-08-20T22:29:55;27.60;60.20
63371;DHT22;72300;48.336;14.472;2023-08-20T22:33:16;27.60;60.70
63371;DHT22;72300;48.336;14.472;2023-08-20T22:36:37;27.60;60.70
63371;DHT22;72300;48.336;14.472;2023-08-20T22:39:59;27.60;60.70
63371;DHT22;72300;48.336;14.472;2023-08-20T22:43:20;27.60;60.70
63371;DHT22;72300;48.336;14.472;2023-08-20T22:46:42;27.60;60.60
63371;DHT22;72300;48.336;14.472;2023-08-20T22:50:04;27.60;60.60
63371;DHT22;72300;48.336;14.472;2023-08-20T22:53:25;27.60;60.60
63371;DHT22;72300;48.336;14.472;2023-08-20T22:56:47;27.60;60.60
63371;DHT22;72300;48.336;14.472;2023-08-20T23:00:09;27.60;60.60
63371;DHT22;72300;48.336;14.472;2023-08-20T23:03:32;27.60;60.50
63371;DHT22;72300;48.336;14.472;2023-08-20T23:06:53;27.60;60.50
63371;DHT22;72300;48.336;14.472;2023-08-20T23:10:17;27.50;60.40
63371;DHT22;72300;48.336;14.472;2023-08-20T23:13:39;27.50;60.40
63371;DHT22;72300;48.336;14.472;2023-08-20T23:17:01;27.50;60.40
63371;DHT22;72300;48.336;14.472;2023-08-20T23:20:23;27.50;60.40
63371;DHT22;72300;48.336;14.472;2023-08-20T23:23:44;27.50;60.40
63371;DHT22;72300;48.336;14.472;2023-08-20T23:27:06;27.50;60.30
63371;DHT22;72300;48.336;14.472;2023-08-20T23:30:27;27.50;60.30
63371;DHT22;72300;48.336;14.472;2023-08-20T23:33:48;27.50;60.30
63371;DHT22;72300;48.336;14.472;2023-08-20T23:37:11;27.50;60.40
63371;DHT22;72300;48.336;14.472;2023-08-20T23:40:32;27.50;60.30
63371;DHT22;72300;48.336;14.472;2023-08-20T23:43:53;27.50;60.30
63371;DHT22;72300;48.336;14.472;2023-08-20T23:47:14;27.40;60.20
63371;DHT22;72300;48.336;14.472;2023-08-20T23:50:36;27.40;60.20
63371;DHT22;72300;48.336;14.472;2023-08-20T23:53:58;27.40;60.20
63371;DHT22;72300;48.336;14.472;2023-08-20T23:57:19;27.40;60.10
